sensor_id;sensor_type;location;lat;lon;timestamp;P1;durP1;ratioP1;P2;durP2;ratioP2
50231;SDS011;36118;56.468;84.952;2022-09-13T00:03:05;3.75;;;1.00;;
50231;SDS011;36118;56.468;84.952;2022-09-13T00:08:09;4.43;;;0.80;;
50231;SDS011;36118;56.468;84.952;2022-09-13T00:13:12;2.72;;;0.95;;
50231;SDS011;36118;56.468;84.952;2022-09-13T00:18:16;4.93;;;0.85;;
50231;SDS011;36118;56.468;84.952;2022-09-13T00:23:20;3.88;;;0.90;;
50231;SDS011;36118;56.468;84.952;2022-09-13T00:28:22;5.88;;;1.08;;
50231;SDS011;36118;56.468;84.952;2022-09-13T00:33:25;4.15;;;0.88;;
50231;SDS011;36118;56.468;84.952;2022-09-13T00:38:28;10.60;;;1.13;;
50231;SDS011;36118;56.468;84.952;2022-09-13T00:43:39;6.00;;;1.00;;
50231;SDS011;36118;56.468;84.952;2022-09-13T00:49:16;4.63;;;1.10;;
50231;SDS011;36118;56.468;84.952;2022-09-13T00:54:23;4.60;;;1.10;;
50231;SDS011;36118;56.468;84.952;2022-09-13T00:59:33;7.45;;;1.20;;
50231;SDS011;36118;56.468;84.952;2022-09-13T01:04:40;5.20;;;1.10;;
50231;SDS011;36118;56.468;84.952;2022-09-13T01:09:44;2.97;;;1.05;;
50231;SDS011;36118;56.468;84.952;2022-09-13T01:14:47;4.35;;;0.95;;
50231;SDS011;36118;56.468;84.952;2022-09-13T01:19:51;4.03;;;1.00;;
50231;SDS011;36118;56.468;84.952;2022-09-13T01:30:46;7.43;;;1.73;;
50231;SDS011;36118;56.468;84.952;2022-09-13T01:36:17;3.25;;;1.10;;
50231;SDS011;36118;56.468;84.952;2022-09-13T01:57:48;3.55;;;1.23;;
50231;SDS011;36118;56.468;84.952;2022-09-13T02:08:49;6.88;;;1.15;;
50231;SDS011;36118;56.468;84.952;2022-09-13T02:19:02;3.45;;;1.25;;
50231;SDS011;36118;56.468;84.952;2022-09-13T02:24:22;7.95;;;1.10;;
50231;SDS011;36118;56.468;84.952;2022-09-13T02:29:31;9.95;;;1.77;;
50231;SDS011;36118;56.468;84.952;2022-09-13T02:34:38;4.95;;;1.08;;
50231;SDS011;36118;56.468;84.952;2022-09-13T02:39:45;11.82;;;1.40;;
50231;SDS011;36118;56.468;84.952;2022-09-13T02:44:54;4.82;;;1.10;;
50231;SDS011;36118;56.468;84.952;2022-09-13T03:00:33;6.65;;;2.22;;
50231;SDS011;36118;56.468;84.952;2022-09-13T03:05:36;4.68;;;1.63;;
50231;SDS011;36118;56.468;84.952;2022-09-13T03:11:28;9.57;;;2.30;;
50231;SDS011;36118;56.468;84.952;2022-09-13T03:37:29;7.60;;;1.27;;
50231;SDS011;36118;56.468;84.952;2022-09-13T03:47:59;4.32;;;1.40;;
50231;SDS011;36118;56.468;84.952;2022-09-13T03:53:05;9.13;;;4.55;;
50231;SDS011;36118;56.468;84.952;2022-09-13T03:58:13;6.25;;;1.20;;
50231;SDS011;36118;56.468;84.952;2022-09-13T04:03:18;3.28;;;0.90;;
50231;SDS011;36118;56.468;84.952;2022-09-13T04:08:24;4.70;;;1.25;;
50231;SDS011;36118;56.468;84.952;2022-09-13T04:13:27;4.82;;;1.40;;
50231;SDS011;36118;56.468;84.952;2022-09-13T04:18:30;4.18;;;1.10;;
50231;SDS011;36118;56.468;84.952;2022-09-13T04:23:33;5.55;;;1.50;;
50231;SDS011;36118;56.468;84.952;2022-09-13T04:28:36;4.70;;;1.70;;
50231;SDS011;36118;56.468;84.952;2022-09-13T04:33:39;5.93;;;1.42;;
50231;SDS011;36118;56.468;84.952;2022-09-13T04:38:42;5.50;;;1.50;;
50231;SDS011;36118;56.468;84.952;2022-09-13T04:43:48;4.32;;;1.20;;
50231;SDS011;36118;56.468;84.952;2022-09-13T04:48:52;6.03;;;1.52;;
50231;SDS011;36118;56.468;84.952;2022-09-13T04:53:55;5.95;;;1.27;;
50231;SDS011;36118;56.468;84.952;2022-09-13T04:58:58;11.73;;;1.50;;
50231;SDS011;36118;56.468;84.952;2022-09-13T05:04:01;3.40;;;0.60;;
50231;SDS011;36118;56.468;84.952;2022-09-13T05:09:14;4.47;;;1.30;;
50231;SDS011;36118;56.468;84.952;2022-09-13T05:14:17;2.47;;;0.80;;
50231;SDS011;36118;56.468;84.952;2022-09-13T05:19:19;1.70;;;0.70;;
50231;SDS011;36118;56.468;84.952;2022-09-13T05:24:22;4.15;;;0.70;;
50231;SDS011;36118;56.468;84.952;2022-09-13T05:29:25;3.40;;;0.50;;
50231;SDS011;36118;56.468;84.952;2022-09-13T05:34:28;3.55;;;0.60;;
50231;SDS011;36118;56.468;84.952;2022-09-13T05:39:33;1.90;;;0.50;;
50231;SDS011;36118;56.468;84.952;2022-09-13T05:44:57;1.13;;;0.30;;
50231;SDS011;36118;56.468;84.952;2022-09-13T05:50:00;1.30;;;0.30;;
50231;SDS011;36118;56.468;84.952;2022-09-13T05:55:11;1.42;;;0.50;;
50231;SDS011;36118;56.468;84.952;2022-09-13T06:00:15;2.92;;;0.40;;
50231;SDS011;36118;56.468;84.952;2022-09-13T06:05:18;2.33;;;0.40;;
50231;SDS011;36118;56.468;84.952;2022-09-13T06:10:21;2.33;;;0.88;;
50231;SDS011;36118;56.468;84.952;2022-09-13T06:15:23;1.50;;;0.50;;
50231;SDS011;36118;56.468;84.952;2022-09-13T06:20:26;1.42;;;0.50;;
50231;SDS011;36118;56.468;84.952;2022-09-13T06:25:29;4.88;;;0.50;;
50231;SDS011;36118;56.468;84.952;2022-09-13T06:35:37;2.08;;;0.40;;
50231;SDS011;36118;56.468;84.952;2022-09-13T06:40:40;2.83;;;0.40;;
50231;SDS011;36118;56.468;84.952;2022-09-13T06:45:43;3.00;;;0.50;;
50231;SDS011;36118;56.468;84.952;2022-09-13T06:50:46;3.85;;;0.50;;
50231;SDS011;36118;56.468;84.952;2022-09-13T06:55:58;2.63;;;0.60;;
50231;SDS011;36118;56.468;84.952;2022-09-13T07:01:12;0.95;;;0.40;;
50231;SDS011;36118;56.468;84.952;2022-09-13T07:06:19;2.22;;;0.60;;
50231;SDS011;36118;56.468;84.952;2022-09-13T07:11:27;1.10;;;0.38;;
50231;SDS011;36118;56.468;84.952;2022-09-13T07:16:33;1.02;;;0.40;;
50231;SDS011;36118;56.468;84.952;2022-09-13T07:21:38;1.52;;;0.60;;
50231;SDS011;36118;56.468;84.952;2022-09-13T07:26:41;1.70;;;0.50;;
50231;SDS011;36118;56.468;84.952;2022-09-13T07:31:45;1.30;;;0.43;;
50231;SDS011;36118;56.468;84.952;2022-09-13T07:36:49;1.20;;;0.50;;
50231;SDS011;36118;56.468;84.952;2022-09-13T07:41:52;5.13;;;1.30;;
50231;SDS011;36118;56.468;84.952;2022-09-13T07:46:56;0.98;;;0.40;;
50231;SDS011;36118;56.468;84.952;2022-09-13T07:51:59;1.50;;;0.40;;
50231;SDS011;36118;56.468;84.952;2022-09-13T07:57:02;1.20;;;0.40;;
50231;SDS011;36118;56.468;84.952;2022-09-13T08:02:05;2.85;;;0.50;;
50231;SDS011;36118;56.468;84.952;2022-09-13T08:07:10;6.83;;;0.73;;
50231;SDS011;36118;56.468;84.952;2022-09-13T08:12:12;2.97;;;0.90;;
50231;SDS011;36118;56.468;84.952;2022-09-13T08:17:15;3.53;;;0.73;;
50231;SDS011;36118;56.468;84.952;2022-09-13T08:22:18;3.25;;;0.70;;
50231;SDS011;36118;56.468;84.952;2022-09-13T08:27:21;2.92;;;0.70;;
50231;SDS011;36118;56.468;84.952;2022-09-13T08:32:24;3.05;;;0.75;;
50231;SDS011;36118;56.468;84.952;2022-09-13T08:37:27;2.88;;;0.85;;
50231;SDS011;36118;56.468;84.952;2022-09-13T09:04:05;4.70;;;0.80;;
50231;SDS011;36118;56.468;84.952;2022-09-13T09:09:30;1.48;;;0.45;;
50231;SDS011;36118;56.468;84.952;2022-09-13T09:14:40;1.75;;;0.70;;
50231;SDS011;36118;56.468;84.952;2022-09-13T09:25:41;2.92;;;0.80;;
50231;SDS011;36118;56.468;84.952;2022-09-13T09:36:15;3.63;;;0.60;;
50231;SDS011;36118;56.468;84.952;2022-09-13T09:41:33;4.13;;;1.33;;
50231;SDS011;36118;56.468;84.952;2022-09-13T09:46:39;3.50;;;0.77;;
50231;SDS011;36118;56.468;84.952;2022-09-13T09:51:42;2.38;;;0.90;;
50231;SDS011;36118;56.468;84.952;2022-09-13T09:56:53;1.63;;;0.38;;
50231;SDS011;36118;56.468;84.952;2022-09-13T10:02:01;3.47;;;0.80;;
50231;SDS011;36118;56.468;84.952;2022-09-13T10:12:28;1.58;;;0.65;;
50231;SDS011;36118;56.468;84.952;2022-09-13T10:17:33;1.73;;;0.60;;
50231;SDS011;36118;56.468;84.952;2022-09-13T10:22:36;3.03;;;1.00;;
50231;SDS011;36118;56.468;84.952;2022-09-13T10:27:46;4.35;;;0.60;;
50231;SDS011;36118;56.468;84.952;2022-09-13T10:32:54;2.45;;;0.40;;
50231;SDS011;36118;56.468;84.952;2022-09-13T10:37:57;1.65;;;0.47;;
50231;SDS011;36118;56.468;84.952;2022-09-13T10:43:01;2.10;;;0.60;;
50231;SDS011;36118;56.468;84.952;2022-09-13T10:48:11;2.42;;;0.40;;
50231;SDS011;36118;56.468;84.952;2022-09-13T10:53:30;2.33;;;0.50;;
50231;SDS011;36118;56.468;84.952;2022-09-13T10:58:35;4.82;;;0.70;;
50231;SDS011;36118;56.468;84.952;2022-09-13T11:09:07;2.67;;;0.70;;
50231;SDS011;36118;56.468;84.952;2022-09-13T11:30:23;2.47;;;0.55;;
50231;SDS011;36118;56.468;84.952;2022-09-13T11:41:07;4.30;;;1.10;;
50231;SDS011;36118;56.468;84.952;2022-09-13T11:57:54;4.30;;;1.40;;
50231;SDS011;36118;56.468;84.952;2022-09-13T12:02:59;4.03;;;1.05;;
50231;SDS011;36118;56.468;84.952;2022-09-13T12:08:10;8.35;;;1.20;;
50231;SDS011;36118;56.468;84.952;2022-09-13T12:13:20;9.48;;;1.50;;
50231;SDS011;36118;56.468;84.952;2022-09-13T12:18:30;4.60;;;1.02;;
50231;SDS011;36118;56.468;84.952;2022-09-13T12:23:41;6.43;;;1.55;;
50231;SDS011;36118;56.468;84.952;2022-09-13T12:28:51;13.05;;;2.67;;
50231;SDS011;36118;56.468;84.952;2022-09-13T12:33:56;7.57;;;3.47;;
50231;SDS011;36118;56.468;84.952;2022-09-13T12:39:15;12.82;;;3.60;;
50231;SDS011;36118;56.468;84.952;2022-09-13T12:50:01;7.50;;;2.78;;
50231;SDS011;36118;56.468;84.952;2022-09-13T13:01:14;14.40;;;2.97;;
50231;SDS011;36118;56.468;84.952;2022-09-13T13:06:29;16.38;;;3.60;;
50231;SDS011;36118;56.468;84.952;2022-09-13T13:11:48;9.38;;;2.70;;
50231;SDS011;36118;56.468;84.952;2022-09-13T13:16:53;10.40;;;3.00;;
50231;SDS011;36118;56.468;84.952;2022-09-13T13:22:45;12.75;;;3.72;;
50231;SDS011;36118;56.468;84.952;2022-09-13T13:27:39;13.27;;;3.67;;
50231;SDS011;36118;56.468;84.952;2022-09-13T13:43:33;15.90;;;3.92;;
50231;SDS011;36118;56.468;84.952;2022-09-13T13:48:37;11.45;;;3.70;;
50231;SDS011;36118;56.468;84.952;2022-09-13T13:58:50;11.98;;;3.13;;
50231;SDS011;36118;56.468;84.952;2022-09-13T14:04:10;20.90;;;3.88;;
50231;SDS011;36118;56.468;84.952;2022-09-13T14:09:45;22.33;;;5.70;;
50231;SDS011;36118;56.468;84.952;2022-09-13T14:20:17;19.50;;;4.85;;
50231;SDS011;36118;56.468;84.952;2022-09-13T14:25:22;16.33;;;4.35;;
50231;SDS011;36118;56.468;84.952;2022-09-13T14:35:32;20.63;;;5.33;;
50231;SDS011;36118;56.468;84.952;2022-09-13T14:40:39;27.33;;;6.43;;
50231;SDS011;36118;56.468;84.952;2022-09-13T14:45:45;24.52;;;6.72;;
50231;SDS011;36118;56.468;84.952;2022-09-13T14:50:59;17.92;;;6.43;;
50231;SDS011;36118;56.468;84.952;2022-09-13T14:56:20;14.65;;;5.70;;
50231;SDS011;36118;56.468;84.952;2022-09-13T15:01:30;15.15;;;5.97;;
50231;SDS011;36118;56.468;84.952;2022-09-13T15:06:39;14.35;;;5.47;;
50231;SDS011;36118;56.468;84.952;2022-09-13T15:17:09;16.77;;;5.38;;
50231;SDS011;36118;56.468;84.952;2022-09-13T15:27:27;19.05;;;7.13;;
50231;SDS011;36118;56.468;84.952;2022-09-13T15:32:33;9.70;;;4.50;;
50231;SDS011;36118;56.468;84.952;2022-09-13T15:37:41;13.57;;;4.82;;
50231;SDS011;36118;56.468;84.952;2022-09-13T15:42:45;15.05;;;5.25;;
50231;SDS011;36118;56.468;84.952;2022-09-13T15:47:50;19.67;;;5.77;;
50231;SDS011;36118;56.468;84.952;2022-09-13T15:52:53;20.75;;;5.80;;
50231;SDS011;36118;56.468;84.952;2022-09-13T15:57:56;16.23;;;5.25;;
50231;SDS011;36118;56.468;84.952;2022-09-13T16:02:59;12.98;;;4.78;;
50231;SDS011;36118;56.468;84.952;2022-09-13T16:08:02;19.55;;;5.40;;
50231;SDS011;36118;56.468;84.952;2022-09-13T16:13:05;11.80;;;5.95;;
50231;SDS011;36118;56.468;84.952;2022-09-13T16:18:08;12.52;;;5.80;;
50231;SDS011;36118;56.468;84.952;2022-09-13T16:23:11;14.90;;;6.05;;
50231;SDS011;36118;56.468;84.952;2022-09-13T16:28:14;12.43;;;5.20;;
50231;SDS011;36118;56.468;84.952;2022-09-13T16:33:20;11.52;;;5.20;;
50231;SDS011;36118;56.468;84.952;2022-09-13T16:38:23;10.68;;;4.85;;
50231;SDS011;36118;56.468;84.952;2022-09-13T16:43:25;11.77;;;5.05;;
50231;SDS011;36118;56.468;84.952;2022-09-13T16:48:29;15.18;;;7.07;;
50231;SDS011;36118;56.468;84.952;2022-09-13T16:53:32;38.78;;;19.55;;
50231;SDS011;36118;56.468;84.952;2022-09-13T16:58:36;40.63;;;21.08;;
50231;SDS011;36118;56.468;84.952;2022-09-13T17:03:43;39.20;;;23.27;;
50231;SDS011;36118;56.468;84.952;2022-09-13T17:08:47;38.88;;;22.40;;
50231;SDS011;36118;56.468;84.952;2022-09-13T17:13:54;44.65;;;22.52;;
50231;SDS011;36118;56.468;84.952;2022-09-13T17:19:00;40.75;;;22.83;;
50231;SDS011;36118;56.468;84.952;2022-09-13T17:24:05;37.53;;;22.33;;
50231;SDS011;36118;56.468;84.952;2022-09-13T17:29:14;34.33;;;20.95;;
50231;SDS011;36118;56.468;84.952;2022-09-13T17:34:17;34.83;;;19.77;;
50231;SDS011;36118;56.468;84.952;2022-09-13T17:39:20;34.10;;;19.60;;
50231;SDS011;36118;56.468;84.952;2022-09-13T17:44:23;36.45;;;18.90;;
50231;SDS011;36118;56.468;84.952;2022-09-13T17:49:26;31.00;;;19.13;;
50231;SDS011;36118;56.468;84.952;2022-09-13T17:54:28;32.67;;;18.48;;
50231;SDS011;36118;56.468;84.952;2022-09-13T17:59:31;33.22;;;18.65;;
50231;SDS011;36118;56.468;84.952;2022-09-13T18:04:35;31.20;;;17.88;;
50231;SDS011;36118;56.468;84.952;2022-09-13T18:09:38;35.40;;;17.65;;
50231;SDS011;36118;56.468;84.952;2022-09-13T18:14:41;35.58;;;17.02;;
50231;SDS011;36118;56.468;84.952;2022-09-13T18:19:44;26.48;;;15.65;;
50231;SDS011;36118;56.468;84.952;2022-09-13T18:24:48;29.92;;;16.08;;
50231;SDS011;36118;56.468;84.952;2022-09-13T18:29:51;30.95;;;15.77;;
50231;SDS011;36118;56.468;84.952;2022-09-13T18:34:54;24.98;;;14.90;;
50231;SDS011;36118;56.468;84.952;2022-09-13T18:39:56;28.08;;;14.25;;
50231;SDS011;36118;56.468;84.952;2022-09-13T18:44:59;24.42;;;12.95;;
50231;SDS011;36118;56.468;84.952;2022-09-13T18:50:04;21.65;;;11.25;;
50231;SDS011;36118;56.468;84.952;2022-09-13T18:55:12;16.75;;;10.38;;
50231;SDS011;36118;56.468;84.952;2022-09-13T19:00:15;14.43;;;9.18;;
50231;SDS011;36118;56.468;84.952;2022-09-13T19:05:18;17.25;;;9.82;;
50231;SDS011;36118;56.468;84.952;2022-09-13T19:10:21;19.35;;;10.82;;
50231;SDS011;36118;56.468;84.952;2022-09-13T19:15:24;16.38;;;9.95;;
50231;SDS011;36118;56.468;84.952;2022-09-13T19:20:27;20.90;;;10.55;;
50231;SDS011;36118;56.468;84.952;2022-09-13T19:25:30;20.50;;;10.45;;
50231;SDS011;36118;56.468;84.952;2022-09-13T19:30:36;21.40;;;10.52;;
50231;SDS011;36118;56.468;84.952;2022-09-13T19:35:39;24.75;;;10.50;;
50231;SDS011;36118;56.468;84.952;2022-09-13T19:40:42;22.35;;;9.30;;
50231;SDS011;36118;56.468;84.952;2022-09-13T19:45:53;18.15;;;9.90;;
50231;SDS011;36118;56.468;84.952;2022-09-13T19:51:03;18.02;;;9.70;;
50231;SDS011;36118;56.468;84.952;2022-09-13T19:56:08;25.15;;;12.02;;
50231;SDS011;36118;56.468;84.952;2022-09-13T20:01:14;27.40;;;13.38;;
50231;SDS011;36118;56.468;84.952;2022-09-13T20:11:21;24.23;;;11.77;;
50231;SDS011;36118;56.468;84.952;2022-09-13T20:16:28;19.10;;;11.15;;
50231;SDS011;36118;56.468;84.952;2022-09-13T20:21:34;23.58;;;12.27;;
50231;SDS011;36118;56.468;84.952;2022-09-13T20:26:37;21.52;;;12.70;;
50231;SDS011;36118;56.468;84.952;2022-09-13T20:31:40;25.27;;;12.80;;
50231;SDS011;36118;56.468;84.952;2022-09-13T20:36:43;19.73;;;12.00;;
50231;SDS011;36118;56.468;84.952;2022-09-13T20:41:46;24.23;;;13.00;;
50231;SDS011;36118;56.468;84.952;2022-09-13T20:46:51;24.55;;;12.43;;
50231;SDS011;36118;56.468;84.952;2022-09-13T20:51:53;27.23;;;12.68;;
50231;SDS011;36118;56.468;84.952;2022-09-13T20:56:56;21.33;;;12.35;;
50231;SDS011;36118;56.468;84.952;2022-09-13T21:01:59;23.80;;;12.52;;
50231;SDS011;36118;56.468;84.952;2022-09-13T21:07:02;24.10;;;12.73;;
50231;SDS011;36118;56.468;84.952;2022-09-13T21:12:23;19.23;;;10.73;;
50231;SDS011;36118;56.468;84.952;2022-09-13T21:17:26;20.85;;;11.65;;
50231;SDS011;36118;56.468;84.952;2022-09-13T21:22:29;19.05;;;10.90;;
50231;SDS011;36118;56.468;84.952;2022-09-13T21:27:32;19.85;;;11.07;;
50231;SDS011;36118;56.468;84.952;2022-09-13T21:32:35;19.70;;;10.70;;
50231;SDS011;36118;56.468;84.952;2022-09-13T21:37:38;19.00;;;10.38;;
50231;SDS011;36118;56.468;84.952;2022-09-13T21:42:41;16.92;;;10.18;;
50231;SDS011;36118;56.468;84.952;2022-09-13T21:47:43;20.38;;;11.10;;
50231;SDS011;36118;56.468;84.952;2022-09-13T21:52:46;19.63;;;10.57;;
50231;SDS011;36118;56.468;84.952;2022-09-13T21:57:49;17.40;;;10.35;;
50231;SDS011;36118;56.468;84.952;2022-09-13T22:02:53;18.75;;;10.00;;
50231;SDS011;36118;56.468;84.952;2022-09-13T22:07:56;16.40;;;8.18;;
50231;SDS011;36118;56.468;84.952;2022-09-13T22:12:58;14.55;;;7.85;;
50231;SDS011;36118;56.468;84.952;2022-09-13T22:18:02;14.40;;;7.28;;
50231;SDS011;36118;56.468;84.952;2022-09-13T22:23:05;19.25;;;8.05;;
50231;SDS011;36118;56.468;84.952;2022-09-13T22:28:08;13.45;;;7.40;;
50231;SDS011;36118;56.468;84.952;2022-09-13T22:33:10;14.30;;;7.45;;
50231;SDS011;36118;56.468;84.952;2022-09-13T22:38:13;17.08;;;7.65;;
50231;SDS011;36118;56.468;84.952;2022-09-13T22:43:17;16.80;;;7.75;;
50231;SDS011;36118;56.468;84.952;2022-09-13T22:48:20;15.60;;;8.30;;
50231;SDS011;36118;56.468;84.952;2022-09-13T22:53:24;16.10;;;7.97;;
50231;SDS011;36118;56.468;84.952;2022-09-13T22:58:28;16.00;;;8.00;;
50231;SDS011;36118;56.468;84.952;2022-09-13T23:03:32;16.92;;;8.27;;
50231;SDS011;36118;56.468;84.952;2022-09-13T23:08:36;16.00;;;8.30;;
50231;SDS011;36118;56.468;84.952;2022-09-13T23:13:39;17.02;;;8.48;;
50231;SDS011;36118;56.468;84.952;2022-09-13T23:18:43;14.80;;;7.88;;
50231;SDS011;36118;56.468;84.952;2022-09-13T23:23:47;13.23;;;8.25;;
50231;SDS011;36118;56.468;84.952;2022-09-13T23:28:51;14.48;;;7.40;;
50231;SDS011;36118;56.468;84.952;2022-09-13T23:33:59;17.30;;;7.65;;
50231;SDS011;36118;56.468;84.952;2022-09-13T23:39:05;16.67;;;7.13;;
50231;SDS011;36118;56.468;84.952;2022-09-13T23:44:09;11.88;;;7.20;;
50231;SDS011;36118;56.468;84.952;2022-09-13T23:49:12;15.15;;;7.40;;
50231;SDS011;36118;56.468;84.952;2022-09-13T23:54:15;14.10;;;7.05;;
50231;SDS011;36118;56.468;84.952;2022-09-13T23:59:18;14.93;;;7.20;;
